Terminal Aerodrome Forecast
Issued by NWS Charleston, WV

Current Version | Previous Version | Graphics & Text | Print | Product List | Glossary On
Versions: 1 2 3 4 5 6 7 8 9 10 11 12 13 14 15 16 17 18 19 20 21 22 23 24
000
FTUS41 KRLX 240200 AAA
TAFEKN
TAF AMD
KEKN 240218Z 2402/2424 VRB03KT P6SM SCT040 BKN080
      TEMPO 2403/2404 3SM SHRA BR BKN035
     FM240500 VRB03KT P6SM OVC020
     FM240700 VRB03KT P6SM OVC012
     FM240900 VRB03KT P6SM OVC008
     FM241400 32004KT P6SM OVC010
     FM241800 32006KT P6SM BKN020
     FM242200 32006KT P6SM SCT035=

USA.gov is the U.S. government's official web portal to all federal, state and local government web resources and services.